createdAt,value
2019-02-23T00:00:52.141Z,-5.6
2019-02-23T00:01:52.199Z,-5.5
2019-02-23T00:02:52.255Z,-5.6
2019-02-23T00:03:52.293Z,-5.6
2019-02-23T00:04:52.320Z,-5.5
2019-02-23T00:05:52.405Z,-5.5
2019-02-23T00:06:52.441Z,-5.6
2019-02-23T00:07:52.474Z,-5.5
2019-02-23T00:08:52.530Z,-5.5
2019-02-23T00:09:52.600Z,-5.5
2019-02-23T00:10:52.633Z,-5.7
2019-02-23T00:11:52.721Z,-5.9
2019-02-23T00:12:52.710Z,-5.7
2019-02-23T00:13:53.221Z,-5.7
2019-02-23T00:14:52.758Z,-5.8
2019-02-23T00:15:52.794Z,-5.8
2019-02-23T00:16:52.838Z,-5.8
2019-02-23T00:17:52.873Z,-5.8
2019-02-23T00:18:52.888Z,-5.9
2019-02-23T00:19:52.941Z,-5.9
2019-02-23T00:20:52.971Z,-5.9
2019-02-23T00:21:53.002Z,-5.9
2019-02-23T00:22:53.039Z,-5.9
2019-02-23T00:23:53.117Z,-5.9
2019-02-23T00:24:53.143Z,-5.9
2019-02-23T00:25:54.183Z,-5.9
2019-02-23T00:26:53.251Z,-5.9
2019-02-23T00:27:53.215Z,-5.9
2019-02-23T00:28:53.325Z,-5.8
2019-02-23T00:29:53.275Z,-5.8
2019-02-23T00:30:53.321Z,-5.8
2019-02-23T00:31:53.351Z,-5.8
2019-02-23T00:32:53.382Z,-5.8
2019-02-23T00:33:53.411Z,-5.8
2019-02-23T00:34:53.460Z,-5.8
2019-02-23T00:35:53.564Z,-5.9
2019-02-23T00:36:53.527Z,-5.9
2019-02-23T00:37:53.565Z,-5.9
2019-02-23T00:38:53.566Z,-5.8
2019-02-23T00:39:53.585Z,-5.8
2019-02-23T00:40:53.639Z,-5.8
2019-02-23T00:41:53.638Z,-5.7
2019-02-23T00:42:53.656Z,-5.7
2019-02-23T00:43:53.685Z,-5.7
2019-02-23T00:44:53.709Z,-5.7
2019-02-23T00:45:53.748Z,-5.7
2019-02-23T00:46:53.769Z,-5.8
2019-02-23T00:47:53.819Z,-5.9
2019-02-23T00:48:53.845Z,-5.9
2019-02-23T00:49:53.888Z,-5.9
2019-02-23T00:50:53.887Z,-6
2019-02-23T00:51:53.908Z,-6
2019-02-23T00:52:53.941Z,-6
2019-02-23T00:53:53.943Z,-6
2019-02-23T00:54:53.965Z,-6
2019-02-23T00:55:53.975Z,-6
2019-02-23T00:56:54.000Z,-6
2019-02-23T00:57:54.058Z,-6
2019-02-23T00:58:54.037Z,-6
2019-02-23T00:59:54.057Z,-6
2019-02-23T01:00:54.067Z,-6
2019-02-23T01:01:54.100Z,-6
2019-02-23T01:02:54.133Z,-6
2019-02-23T01:03:54.115Z,-6
2019-02-23T01:04:54.118Z,-5.9
2019-02-23T01:05:54.142Z,-5.9
2019-02-23T01:06:54.144Z,-5.9
2019-02-23T01:07:54.164Z,-5.9
2019-02-23T01:08:54.165Z,-5.9
2019-02-23T01:09:54.165Z,-5.8
2019-02-23T01:10:57.910Z,-5.8
2019-02-23T01:11:54.192Z,-5.8
2019-02-23T01:12:54.179Z,-5.8
2019-02-23T01:13:54.175Z,-5.8
2019-02-23T01:14:54.223Z,-5.7
2019-02-23T01:15:54.313Z,-5.8
2019-02-23T01:16:54.365Z,-5.7
2019-02-23T01:17:54.475Z,-5.6
2019-02-23T01:18:54.450Z,-5.6
2019-02-23T01:19:54.468Z,-5.6
2019-02-23T01:20:54.563Z,-5.5
2019-02-23T01:21:54.630Z,-5.6
2019-02-23T01:22:54.745Z,-5.6
2019-02-23T01:23:54.689Z,-5.6
2019-02-23T01:24:54.789Z,-5.6
2019-02-23T01:25:54.793Z,-5.6
2019-02-23T01:26:54.884Z,-5.7
2019-02-23T01:27:54.939Z,-5.8
2019-02-23T01:28:54.946Z,-5.8
2019-02-23T01:29:54.999Z,-5.9
2019-02-23T01:30:55.059Z,-5.9
2019-02-23T01:31:55.122Z,-6
2019-02-23T01:32:55.208Z,-6.1
2019-02-23T01:33:55.252Z,-6.1
2019-02-23T01:34:55.291Z,-6.2
2019-02-23T01:35:55.382Z,-6.2
2019-02-23T01:36:55.444Z,-6.2
2019-02-23T01:37:55.489Z,-6.3
2019-02-23T01:38:55.516Z,-6.3
2019-02-23T01:39:55.602Z,-6.2
2019-02-23T01:40:55.580Z,-6.2
2019-02-23T01:41:55.612Z,-6.2
2019-02-23T01:42:55.635Z,-6.2
2019-02-23T01:43:55.690Z,-6.2
2019-02-23T01:44:55.712Z,-6.2
2019-02-23T01:45:55.754Z,-6.2
2019-02-23T01:46:55.801Z,-6.2
2019-02-23T01:47:55.854Z,-6.1
2019-02-23T01:48:55.855Z,-6.1
2019-02-23T01:49:58.708Z,-6.1
2019-02-23T01:50:55.975Z,-6.1
2019-02-23T01:51:56.004Z,-6
2019-02-23T01:52:56.077Z,-6
2019-02-23T01:53:56.075Z,-6
2019-02-23T01:54:56.133Z,-6
2019-02-23T01:55:56.232Z,-6
2019-02-23T01:56:56.219Z,-6
2019-02-23T01:57:56.252Z,-5.9
2019-02-23T01:58:56.245Z,-5.9
2019-02-23T01:59:56.336Z,-5.9
2019-02-23T02:00:56.370Z,-5.9
2019-02-23T02:01:56.345Z,-5.9
2019-02-23T02:02:56.414Z,-5.9
2019-02-23T02:03:56.454Z,-5.9
2019-02-23T02:04:56.553Z,-6
2019-02-23T02:05:56.547Z,-6
2019-02-23T02:06:56.650Z,-6.1
2019-02-23T02:07:56.612Z,-6.1
2019-02-23T02:08:56.706Z,-6.2
2019-02-23T02:09:56.705Z,-6.1
2019-02-23T02:10:56.811Z,-6.1
2019-02-23T02:11:56.785Z,-6.1
2019-02-23T02:12:56.818Z,-6.2
2019-02-23T02:13:56.819Z,-6.2
2019-02-23T02:14:56.870Z,-6.3
2019-02-23T02:15:56.846Z,-6.3
2019-02-23T02:16:56.887Z,-6.3
2019-02-23T02:17:56.947Z,-6.3
2019-02-23T02:18:56.953Z,-6.3
2019-02-23T02:19:56.989Z,-6.3
2019-02-23T02:20:57.026Z,-6.2
2019-02-23T02:21:57.058Z,-6.2
2019-02-23T02:22:57.068Z,-6.1
2019-02-23T02:23:57.092Z,-6
2019-02-23T02:24:57.104Z,-6
2019-02-23T02:25:57.170Z,-5.9
2019-02-23T02:26:57.183Z,-5.9
2019-02-23T02:27:57.188Z,-5.9
2019-02-23T02:28:57.320Z,-5.9
2019-02-23T02:29:57.247Z,-5.8
2019-02-23T02:30:57.285Z,-5.9
2019-02-23T02:31:57.329Z,-5.9
2019-02-23T02:32:57.333Z,-5.8
2019-02-23T02:33:57.396Z,-5.7
2019-02-23T02:34:57.405Z,-5.8
2019-02-23T02:35:57.401Z,-5.6
2019-02-23T02:36:57.399Z,-5.6
2019-02-23T02:37:57.428Z,-5.6
2019-02-23T02:38:57.470Z,-5.6
2019-02-23T02:39:57.467Z,-5.5
2019-02-23T02:40:57.471Z,-5.5
2019-02-23T02:41:57.514Z,-5.4
2019-02-23T02:42:57.497Z,-5.4
2019-02-23T02:43:57.536Z,-5.4
2019-02-23T02:44:57.558Z,-5.3
2019-02-23T02:45:57.540Z,-5.2
2019-02-23T02:46:57.599Z,-5.2
2019-02-23T02:47:57.583Z,-5.1
2019-02-23T02:49:13.296Z,-5.1
2019-02-23T02:49:57.585Z,-5
2019-02-23T02:50:57.627Z,-5
2019-02-23T02:51:57.619Z,-5
2019-02-23T02:52:57.650Z,-5
2019-02-23T02:53:57.644Z,-5.1
2019-02-23T02:54:57.645Z,-5
2019-02-23T02:55:57.631Z,-5
2019-02-23T02:56:57.659Z,-4.9
2019-02-23T02:57:57.673Z,-4.9
2019-02-23T02:58:57.678Z,-4.9
2019-02-23T02:59:57.648Z,-4.9
2019-02-23T03:00:57.719Z,-4.9
2019-02-23T03:01:58.866Z,-4.9
2019-02-23T03:02:57.876Z,-4.9
2019-02-23T03:03:57.875Z,-4.9
2019-02-23T03:04:58.020Z,-5
2019-02-23T03:05:57.985Z,-5
2019-02-23T03:06:58.013Z,-5.1
2019-02-23T03:07:58.080Z,-5.1
2019-02-23T03:08:58.135Z,-5.1
2019-02-23T03:09:58.182Z,-5.2
2019-02-23T03:10:58.274Z,-5.2
2019-02-23T03:11:58.289Z,-5.2
2019-02-23T03:12:58.427Z,-5.2
2019-02-23T03:13:58.435Z,-5.2
2019-02-23T03:14:58.489Z,-5.2
2019-02-23T03:15:58.549Z,-5.2
2019-02-23T03:16:58.611Z,-5.2
2019-02-23T03:17:58.693Z,-5.2
2019-02-23T03:18:58.735Z,-5.2
2019-02-23T03:19:58.802Z,-5.2
2019-02-23T03:20:58.845Z,-5.2
2019-02-23T03:21:58.910Z,-5.2
2019-02-23T03:22:58.981Z,-5.1
2019-02-23T03:23:59.016Z,-5.1
2019-02-23T03:24:59.087Z,-5
2019-02-23T03:25:59.125Z,-5
2019-02-23T03:26:59.729Z,-5
2019-02-23T03:27:59.245Z,-5
2019-02-23T03:28:59.303Z,-4.9
2019-02-23T03:29:59.366Z,-4.9
2019-02-23T03:30:59.401Z,-4.9
2019-02-23T03:31:59.497Z,-4.9
2019-02-23T03:32:59.554Z,-4.9
2019-02-23T03:33:59.711Z,-4.9
2019-02-23T03:34:59.632Z,-4.9
2019-02-23T03:35:59.661Z,-4.9
2019-02-23T03:36:59.739Z,-5
2019-02-23T03:37:59.806Z,-4.9
2019-02-23T03:38:59.830Z,-5
2019-02-23T03:39:59.892Z,-4.9
2019-02-23T03:40:59.916Z,-4.9
2019-02-23T03:41:59.974Z,-5
2019-02-23T03:42:59.962Z,-5
2019-02-23T03:44:00.011Z,-5
2019-02-23T03:45:00.272Z,-5.1
2019-02-23T03:46:00.109Z,-5.1
2019-02-23T03:47:00.132Z,-5.2
2019-02-23T03:48:00.173Z,-5.3
2019-02-23T03:49:00.228Z,-5.2
2019-02-23T03:50:02.547Z,-5.3
2019-02-23T03:51:00.319Z,-5.3
2019-02-23T03:52:00.367Z,-5.3
2019-02-23T03:53:00.414Z,-5.3
2019-02-23T03:54:00.421Z,-5.4
2019-02-23T03:55:00.447Z,-5.4
2019-02-23T03:56:00.505Z,-5.4
2019-02-23T03:57:00.526Z,-5.4
2019-02-23T03:58:00.569Z,-5.4
2019-02-23T03:59:00.590Z,-5.4
2019-02-23T04:00:00.618Z,-5.3
2019-02-23T04:01:00.761Z,-5.4
2019-02-23T04:02:00.690Z,-5.3
2019-02-23T04:03:00.712Z,-5.3
2019-02-23T04:04:00.744Z,-5.2
2019-02-23T04:05:00.765Z,-5.3
2019-02-23T04:06:00.759Z,-5.3
2019-02-23T04:07:00.788Z,-5.3
2019-02-23T04:08:00.826Z,-5.4
2019-02-23T04:09:02.788Z,-5.4
2019-02-23T04:10:00.874Z,-5.5
2019-02-23T04:11:00.921Z,-5.6
2019-02-23T04:12:00.965Z,-5.6
2019-02-23T04:13:01.000Z,-5.7
2019-02-23T04:14:01.046Z,-5.7
2019-02-23T04:15:01.030Z,-5.7
2019-02-23T04:16:01.162Z,-5.9
2019-02-23T04:17:01.071Z,-5.9
2019-02-23T04:18:01.170Z,-6
2019-02-23T04:19:01.122Z,-6
2019-02-23T04:20:01.164Z,-6
2019-02-23T04:21:02.190Z,-5.9
2019-02-23T04:22:01.236Z,-5.9
2019-02-23T04:23:01.222Z,-5.9
2019-02-23T04:24:01.329Z,-5.8
2019-02-23T04:25:01.349Z,-5.7
2019-02-23T04:26:01.330Z,-5.8
2019-02-23T04:27:01.355Z,-5.8
2019-02-23T04:28:01.346Z,-5.7
2019-02-23T04:29:01.355Z,-5.7
2019-02-23T04:30:01.348Z,-5.7
2019-02-23T04:31:01.394Z,-5.7
2019-02-23T04:32:01.382Z,-5.8
2019-02-23T04:33:01.412Z,-5.8
2019-02-23T04:34:01.432Z,-5.9
2019-02-23T04:35:01.432Z,-6
2019-02-23T04:36:01.450Z,-6
2019-02-23T04:37:01.449Z,-6
2019-02-23T04:38:01.508Z,-6.1
2019-02-23T04:39:01.555Z,-6
2019-02-23T04:40:01.490Z,-6
2019-02-23T04:41:01.494Z,-6
2019-02-23T04:42:01.547Z,-6
2019-02-23T04:43:01.515Z,-6.1
2019-02-23T04:44:01.535Z,-6.2
2019-02-23T04:45:01.620Z,-6.2
2019-02-23T04:46:01.573Z,-6.3
2019-02-23T04:47:01.550Z,-6.3
2019-02-23T04:48:01.555Z,-6.4
2019-02-23T04:49:01.584Z,-6.4
2019-02-23T04:50:01.578Z,-6.4
2019-02-23T04:51:13.407Z,-6.4
2019-02-23T04:52:01.668Z,-6.4
2019-02-23T04:53:01.739Z,-6.5
2019-02-23T04:54:01.766Z,-6.5
2019-02-23T04:55:01.829Z,-6.5
2019-02-23T04:56:01.843Z,-6.5
2019-02-23T04:57:01.916Z,-6.5
2019-02-23T04:58:01.961Z,-6.5
2019-02-23T04:59:02.017Z,-6.5
2019-02-23T05:00:02.079Z,-6.6
2019-02-23T05:01:02.110Z,-6.6
2019-02-23T05:02:02.168Z,-6.6
2019-02-23T05:03:02.235Z,-6.5
2019-02-23T05:04:02.346Z,-6.5
2019-02-23T05:05:02.409Z,-6.5
2019-02-23T05:06:02.354Z,-6.5
2019-02-23T05:07:02.437Z,-6.5
2019-02-23T05:08:02.747Z,-6.6
2019-02-23T05:09:02.515Z,-6.6
2019-02-23T05:10:02.524Z,-6.6
2019-02-23T05:11:02.590Z,-6.6
2019-02-23T05:12:02.571Z,-6.6
2019-02-23T05:13:02.679Z,-6.6
2019-02-23T05:14:02.667Z,-6.6
2019-02-23T05:15:03.767Z,-6.6
2019-02-23T05:16:02.887Z,-6.6
2019-02-23T05:17:02.834Z,-6.5
2019-02-23T05:18:02.879Z,-6.5
2019-02-23T05:19:02.954Z,-6.5
2019-02-23T05:20:02.968Z,-6.5
2019-02-23T05:21:03.017Z,-6.4
2019-02-23T05:22:03.054Z,-6.4
2019-02-23T05:23:03.101Z,-6.5
2019-02-23T05:24:03.132Z,-6.6
2019-02-23T05:25:03.178Z,-6.6
2019-02-23T05:26:03.248Z,-6.6
2019-02-23T05:27:03.266Z,-6.6
2019-02-23T05:28:03.421Z,-6.5
2019-02-23T05:29:03.368Z,-6.5
2019-02-23T05:30:03.462Z,-6.6
2019-02-23T05:31:03.495Z,-6.5
2019-02-23T05:32:03.547Z,-6.5
2019-02-23T05:33:03.603Z,-6.5
2019-02-23T05:34:03.642Z,-6.4
2019-02-23T05:35:03.697Z,-6.4
2019-02-23T05:36:03.761Z,-6.3
2019-02-23T05:37:03.805Z,-6.3
2019-02-23T05:38:03.859Z,-6.2
2019-02-23T05:39:03.879Z,-6.2
2019-02-23T05:40:03.915Z,-6.2
2019-02-23T05:41:03.967Z,-6.2
2019-02-23T05:42:03.989Z,-6.1
2019-02-23T05:43:04.101Z,-6.1
2019-02-23T05:44:04.111Z,-6.1
2019-02-23T05:45:04.167Z,-6.1
2019-02-23T05:46:04.194Z,-6.1
2019-02-23T05:47:04.179Z,-6.1
2019-02-23T05:48:04.210Z,-6.1
2019-02-23T05:49:04.291Z,-6.2
2019-02-23T05:50:04.409Z,-6.3
2019-02-23T05:51:04.364Z,-6.3
2019-02-23T05:52:04.427Z,-6.4
2019-02-23T05:53:04.469Z,-6.4
2019-02-23T05:54:04.518Z,-6.4
2019-02-23T05:55:04.575Z,-6.4
2019-02-23T05:56:04.601Z,-6.4
2019-02-23T05:57:04.711Z,-6.4
2019-02-23T05:58:04.682Z,-6.3
2019-02-23T05:59:04.706Z,-6.4
2019-02-23T06:00:04.755Z,-6.3
2019-02-23T06:01:04.794Z,-6.4
2019-02-23T06:02:04.818Z,-6.5
2019-02-23T06:03:04.851Z,-6.6
2019-02-23T06:04:04.883Z,-6.6
2019-02-23T06:05:04.911Z,-6.7
2019-02-23T06:06:04.925Z,-6.8
2019-02-23T06:07:04.935Z,-6.8
2019-02-23T06:08:04.978Z,-6.9
2019-02-23T06:09:05.025Z,-6.9
2019-02-23T06:10:05.043Z,-6.9
2019-02-23T06:11:05.059Z,-6.9
2019-02-23T06:12:05.082Z,-6.8
2019-02-23T06:13:05.107Z,-6.8
2019-02-23T06:14:05.135Z,-6.8
2019-02-23T06:15:05.172Z,-6.8
2019-02-23T06:16:05.228Z,-6.8
2019-02-23T06:17:05.238Z,-6.8
2019-02-23T06:18:05.243Z,-6.8
2019-02-23T06:19:05.237Z,-6.7
2019-02-23T06:20:05.271Z,-6.7
2019-02-23T06:21:05.455Z,-6.8
2019-02-23T06:22:05.310Z,-6.8
2019-02-23T06:23:05.336Z,-6.8
2019-02-23T06:24:05.325Z,-6.8
2019-02-23T06:25:05.323Z,-6.7
2019-02-23T06:26:05.385Z,-6.6
2019-02-23T06:27:05.371Z,-6.6
2019-02-23T06:28:05.406Z,-6.6
2019-02-23T06:29:05.379Z,-6.6
2019-02-23T06:30:05.400Z,-6.6
2019-02-23T06:31:05.438Z,-6.7
2019-02-23T06:32:05.449Z,-6.6
2019-02-23T06:33:05.431Z,-6.5
2019-02-23T06:34:15.384Z,-6.5
2019-02-23T06:35:05.462Z,-6.5
2019-02-23T06:36:05.658Z,-6.5
2019-02-23T06:37:05.472Z,-6.4
2019-02-23T06:38:05.453Z,-6.4
2019-02-23T06:39:06.014Z,-6.4
2019-02-23T06:40:05.616Z,-6.3
2019-02-23T06:41:05.882Z,-6.3
2019-02-23T06:42:05.738Z,-6.2
2019-02-23T06:43:05.788Z,-6.1
2019-02-23T06:44:05.842Z,-6.1
2019-02-23T06:45:06.000Z,-6
2019-02-23T06:46:05.972Z,-6
2019-02-23T06:47:06.021Z,-6
2019-02-23T06:48:06.085Z,-6
2019-02-23T06:49:06.168Z,-6
2019-02-23T06:50:06.189Z,-5.9
2019-02-23T06:51:06.257Z,-5.9
2019-02-23T06:52:06.279Z,-5.8
2019-02-23T06:53:06.301Z,-5.8
2019-02-23T06:54:06.349Z,-5.7
2019-02-23T06:55:06.408Z,-5.7
2019-02-23T06:56:06.449Z,-5.7
2019-02-23T06:57:06.524Z,-5.8
2019-02-23T06:58:06.582Z,-5.8
2019-02-23T06:59:06.648Z,-5.8
2019-02-23T07:00:06.727Z,-5.8
2019-02-23T07:01:06.778Z,-5.7
2019-02-23T07:02:06.844Z,-5.6
2019-02-23T07:03:06.891Z,-5.7
2019-02-23T07:04:07.999Z,-5.5
2019-02-23T07:05:07.006Z,-5.4
2019-02-23T07:06:07.159Z,-5.4
2019-02-23T07:07:07.154Z,-5.3
2019-02-23T07:08:07.145Z,-5.3
2019-02-23T07:09:07.224Z,-5.3
2019-02-23T07:10:07.261Z,-5.2
2019-02-23T07:11:07.369Z,-5.2
2019-02-23T07:12:07.398Z,-5.1
2019-02-23T07:13:07.442Z,-5.1
2019-02-23T07:14:07.463Z,-5.1
2019-02-23T07:15:07.629Z,-5.1
2019-02-23T07:16:07.555Z,-5
2019-02-23T07:17:07.614Z,-5
2019-02-23T07:18:07.678Z,-4.9
2019-02-23T07:19:07.794Z,-4.9
2019-02-23T07:20:07.746Z,-4.8
2019-02-23T07:21:07.817Z,-4.8
2019-02-23T07:22:14.967Z,-4.8
2019-02-23T07:23:07.827Z,-4.8
2019-02-23T07:24:07.898Z,-4.7
2019-02-23T07:25:07.905Z,-4.6
2019-02-23T07:26:07.943Z,-4.6
2019-02-23T07:27:07.998Z,-4.5
2019-02-23T07:28:08.063Z,-4.5
2019-02-23T07:29:08.091Z,-4.5
2019-02-23T07:30:08.081Z,-4.4
2019-02-23T07:31:08.140Z,-4.5
2019-02-23T07:32:08.157Z,-4.4
2019-02-23T07:33:10.762Z,-4.4
2019-02-23T07:34:08.284Z,-4.3
2019-02-23T07:35:08.309Z,-4.4
2019-02-23T07:36:08.337Z,-4.4
2019-02-23T07:37:08.405Z,-4.3
2019-02-23T07:38:08.407Z,-4.3
2019-02-23T07:39:08.430Z,-4.3
2019-02-23T07:40:08.471Z,-4.3
2019-02-23T07:41:08.470Z,-4.3
2019-02-23T07:42:08.506Z,-4.3
2019-02-23T07:43:08.574Z,-4.3
2019-02-23T07:44:08.595Z,-4.4
2019-02-23T07:45:08.646Z,-4.4
2019-02-23T07:46:08.652Z,-4.4
2019-02-23T07:47:08.715Z,-4.4
2019-02-23T07:48:08.708Z,-4.4
2019-02-23T07:49:08.754Z,-4.3
2019-02-23T07:50:08.771Z,-4.4
2019-02-23T07:51:08.789Z,-4.5
2019-02-23T07:52:08.812Z,-4.6
2019-02-23T07:53:08.841Z,-4.5
2019-02-23T07:54:08.867Z,-4.4
2019-02-23T07:55:08.882Z,-4.3
2019-02-23T07:56:08.898Z,-4.2
2019-02-23T07:57:08.964Z,-4.2
2019-02-23T07:58:08.970Z,-4.2
2019-02-23T07:59:09.002Z,-4.5
2019-02-23T08:00:09.014Z,-4.7
2019-02-23T08:01:09.042Z,-4.8
2019-02-23T08:02:09.088Z,-4.9
2019-02-23T08:03:09.140Z,-5
2019-02-23T08:04:09.166Z,-5.2
2019-02-23T08:05:09.134Z,-5.4
2019-02-23T08:06:09.152Z,-5.5
2019-02-23T08:07:09.187Z,-5.7
2019-02-23T08:08:09.226Z,-5.6
2019-02-23T08:09:09.348Z,-5.5
2019-02-23T08:10:09.249Z,-5.4
2019-02-23T08:11:09.253Z,-5.4
2019-02-23T08:12:09.277Z,-5
2019-02-23T08:13:09.286Z,-4.8
2019-02-23T08:14:09.329Z,-4.6
2019-02-23T08:15:09.301Z,-4.4
2019-02-23T08:16:09.314Z,-4.2
2019-02-23T08:17:09.300Z,-4.3
2019-02-23T08:18:09.347Z,-4.4
2019-02-23T08:19:09.331Z,-4.3
2019-02-23T08:20:09.355Z,-4.3
2019-02-23T08:21:09.401Z,-4.5
2019-02-23T08:22:09.345Z,-4.4
2019-02-23T08:23:09.386Z,-4.4
2019-02-23T08:24:09.369Z,-4.3
2019-02-23T08:25:09.423Z,-4.3
2019-02-23T08:26:09.396Z,-4.4
2019-02-23T08:27:09.750Z,-4.4
2019-02-23T08:28:09.548Z,-4.3
2019-02-23T08:29:09.566Z,-4.3
2019-02-23T08:30:09.596Z,-4.3
2019-02-23T08:31:09.658Z,-4.4
2019-02-23T08:32:09.699Z,-4.3
2019-02-23T08:33:09.736Z,-4.5
2019-02-23T08:34:09.772Z,-4.5
2019-02-23T08:35:09.808Z,-4.3
2019-02-23T08:36:09.863Z,-4.3
2019-02-23T08:37:09.911Z,-4.5
2019-02-23T08:38:10.000Z,-4.6
2019-02-23T08:39:10.026Z,-4.5
2019-02-23T08:40:10.116Z,-4.8
2019-02-23T08:41:10.160Z,-5
2019-02-23T08:42:10.176Z,-4.7
2019-02-23T08:43:10.242Z,-4.4
2019-02-23T08:44:10.292Z,-4.4
2019-02-23T08:45:10.399Z,-4.4
2019-02-23T08:46:10.432Z,-4.4
2019-02-23T08:47:10.473Z,-4.7
2019-02-23T08:48:10.514Z,-4.6
2019-02-23T08:49:10.581Z,-4.5
2019-02-23T08:50:10.556Z,-4.6
2019-02-23T08:51:10.665Z,-4.9
2019-02-23T08:52:10.679Z,-5.3
2019-02-23T08:53:10.759Z,-5.2
2019-02-23T08:54:10.809Z,-5
2019-02-23T08:55:10.866Z,-5.1
2019-02-23T08:56:10.953Z,-4.9
2019-02-23T08:57:10.987Z,-4.7
2019-02-23T08:58:10.980Z,-4.8
2019-02-23T08:59:11.063Z,-5.1
2019-02-23T09:00:11.088Z,-5.2
2019-02-23T09:01:11.149Z,-4.9
2019-02-23T09:02:11.215Z,-4.7
2019-02-23T09:03:11.284Z,-5.2
2019-02-23T09:04:11.315Z,-5.1
2019-02-23T09:05:11.378Z,-5.1
2019-02-23T09:06:11.454Z,-5.5
2019-02-23T09:07:11.470Z,-5.8
2019-02-23T09:08:11.515Z,-6
2019-02-23T09:09:11.531Z,-6.1
2019-02-23T09:10:11.593Z,-6
2019-02-23T09:11:11.603Z,-5.9
2019-02-23T09:12:11.681Z,-6
2019-02-23T09:13:11.778Z,-6
2019-02-23T09:14:11.770Z,-6.1
2019-02-23T09:15:11.751Z,-6.1
2019-02-23T09:16:11.799Z,-5.7
2019-02-23T09:17:11.860Z,-5.7
2019-02-23T09:18:11.913Z,-5.6
2019-02-23T09:19:11.962Z,-5.9
2019-02-23T09:20:12.052Z,-5.9
2019-02-23T09:21:12.060Z,-5.7
2019-02-23T09:22:12.117Z,-5.7
2019-02-23T09:23:12.112Z,-5.7
2019-02-23T09:24:12.128Z,-5.7
2019-02-23T09:25:12.202Z,-5.6
2019-02-23T09:26:12.278Z,-5.3
2019-02-23T09:27:12.278Z,-5.5
2019-02-23T09:28:12.331Z,-5.6
2019-02-23T09:29:12.347Z,-5.6
2019-02-23T09:30:12.536Z,-5.4
2019-02-23T09:31:12.442Z,-5.7
2019-02-23T09:32:12.452Z,-5.1
2019-02-23T09:33:12.475Z,-5.3
2019-02-23T09:34:12.547Z,-5.7
2019-02-23T09:35:12.595Z,-5.7
2019-02-23T09:36:12.561Z,-5.8
2019-02-23T09:37:12.612Z,-5.8
2019-02-23T09:38:12.642Z,-6
2019-02-23T09:39:12.668Z,-5.7
2019-02-23T09:40:12.699Z,-5.7
2019-02-23T09:41:12.724Z,-5.9
2019-02-23T09:42:12.755Z,-5.5
2019-02-23T09:43:12.783Z,-5.6
2019-02-23T09:44:12.792Z,-6.2
2019-02-23T09:45:12.833Z,-5.9
2019-02-23T09:46:12.873Z,-6.1
2019-02-23T09:47:12.891Z,-5.7
2019-02-23T09:48:12.890Z,-6
2019-02-23T09:49:12.942Z,-6.1
2019-02-23T09:50:12.924Z,-5.9
2019-02-23T09:51:12.980Z,-5.4
2019-02-23T09:52:13.496Z,-5.2
2019-02-23T09:53:13.009Z,-5.6
2019-02-23T09:54:13.045Z,-5.8
2019-02-23T09:55:13.056Z,-5.9
2019-02-23T09:56:13.069Z,-5.6
2019-02-23T09:57:13.185Z,-5.1
2019-02-23T09:58:13.125Z,-5.7
2019-02-23T09:59:13.134Z,-5.9
2019-02-23T10:00:13.147Z,-5.6
2019-02-23T10:01:13.211Z,-5.6
2019-02-23T10:02:13.190Z,-5.5
2019-02-23T10:03:13.235Z,-6.3
2019-02-23T10:04:13.212Z,-5.6
2019-02-23T10:05:13.231Z,-5.3
2019-02-23T10:06:13.251Z,-5.2
2019-02-23T10:07:13.227Z,-5.3
2019-02-23T10:08:13.237Z,-5.2
2019-02-23T10:09:13.288Z,-5.2
2019-02-23T10:10:14.279Z,-5.5
2019-02-23T10:11:13.331Z,-5.4
2019-02-23T10:12:13.278Z,-5.5
2019-02-23T10:13:13.270Z,-6.2
2019-02-23T10:14:13.300Z,-6.1
2019-02-23T10:15:13.346Z,-5.7
2019-02-23T10:16:13.450Z,-5.3
2019-02-23T10:17:13.423Z,-5.1
2019-02-23T10:18:13.580Z,-5.1
2019-02-23T10:19:13.595Z,-5
2019-02-23T10:20:13.593Z,-4.9
2019-02-23T10:21:13.842Z,-6.1
2019-02-23T10:22:13.789Z,-5.8
2019-02-23T10:23:21.430Z,-6.2
2019-02-23T10:24:14.887Z,-6.2
2019-02-23T10:25:13.933Z,-6.2
2019-02-23T10:26:13.991Z,-6.2
2019-02-23T10:27:14.065Z,-6.2
2019-02-23T10:28:14.119Z,-6.1
2019-02-23T10:29:14.185Z,-6.8
2019-02-23T10:30:14.267Z,-7.4
2019-02-23T10:31:14.296Z,-7.2
2019-02-23T10:32:14.397Z,-7.3
2019-02-23T10:33:14.457Z,-7.5
2019-02-23T10:34:14.501Z,-7.3
2019-02-23T10:35:14.517Z,-7
2019-02-23T10:36:14.577Z,-7.5
2019-02-23T10:37:14.632Z,-7.6
2019-02-23T10:38:14.652Z,-7.8
2019-02-23T10:39:14.683Z,-7.4
2019-02-23T10:40:14.676Z,-7
2019-02-23T10:41:14.772Z,-6.9
2019-02-23T10:42:14.783Z,-6.6
2019-02-23T10:43:14.811Z,-6.8
2019-02-23T10:44:14.827Z,-6.3
2019-02-23T10:45:14.875Z,-6.2
2019-02-23T10:46:14.842Z,-6.4
2019-02-23T10:47:14.893Z,-6.2
2019-02-23T10:48:14.969Z,-6
2019-02-23T10:49:14.960Z,-5.8
2019-02-23T10:50:15.021Z,-6
2019-02-23T10:51:15.081Z,-5.8
2019-02-23T10:52:15.114Z,-5.8
2019-02-23T10:53:15.177Z,-5.8
2019-02-23T10:54:15.186Z,-6
2019-02-23T10:55:15.203Z,-5.9
2019-02-23T10:56:15.249Z,-6.1
2019-02-23T10:57:15.294Z,-6.5
2019-02-23T10:58:15.352Z,-6.5
2019-02-23T10:59:15.347Z,-6.2
2019-02-23T11:00:15.388Z,-6
2019-02-23T11:01:17.648Z,-6.3
2019-02-23T11:02:15.470Z,-6.5
2019-02-23T11:03:15.560Z,-6.3
2019-02-23T11:04:15.591Z,-6.3
2019-02-23T11:05:15.588Z,-6.3
2019-02-23T11:06:15.635Z,-6.2
2019-02-23T11:07:15.675Z,-6.6
2019-02-23T11:08:15.688Z,-6.5
2019-02-23T11:09:15.736Z,-7
2019-02-23T11:10:15.771Z,-7.9
2019-02-23T11:11:15.825Z,-7.7
2019-02-23T11:12:16.155Z,-7.8
2019-02-23T11:13:15.873Z,-7.8
2019-02-23T11:14:15.933Z,-8.3
2019-02-23T11:15:15.972Z,-8.1
2019-02-23T11:16:15.998Z,-8.2
2019-02-23T11:17:16.006Z,-8.3
2019-02-23T11:18:16.072Z,-8.2
2019-02-23T11:19:16.094Z,-8.2
2019-02-23T11:20:16.121Z,-8.2
2019-02-23T11:21:16.139Z,-8.1
2019-02-23T11:22:16.175Z,-8.1
2019-02-23T11:23:16.232Z,-8.1
2019-02-23T11:24:18.304Z,-8.2
2019-02-23T11:25:16.285Z,-8.5
2019-02-23T11:26:16.434Z,-8.6
2019-02-23T11:27:16.340Z,-8.2
2019-02-23T11:28:16.369Z,-8.8
2019-02-23T11:29:16.411Z,-9.2
2019-02-23T11:30:16.434Z,-8.6
2019-02-23T11:31:16.590Z,-8.4
2019-02-23T11:32:16.517Z,-8.2
2019-02-23T11:33:16.645Z,-8.7
2019-02-23T11:34:16.518Z,-8.7
2019-02-23T11:35:17.546Z,-8.6
2019-02-23T11:36:16.534Z,-8.8
2019-02-23T11:37:16.591Z,-8.9
2019-02-23T11:38:16.571Z,-9.3
2019-02-23T11:39:16.600Z,-9.3
2019-02-23T11:40:16.678Z,-8.7
2019-02-23T11:41:16.642Z,-8.5
2019-02-23T11:42:16.691Z,-8.7
2019-02-23T11:43:16.679Z,-9
2019-02-23T11:44:16.737Z,-9
2019-02-23T11:45:16.724Z,-9
2019-02-23T11:46:16.751Z,-7.8
2019-02-23T11:47:16.736Z,-6.9
2019-02-23T11:48:16.775Z,-6.2
2019-02-23T11:49:16.775Z,-6.4
2019-02-23T11:50:16.771Z,-6.3
2019-02-23T11:51:16.827Z,-6.1
2019-02-23T11:52:16.788Z,-6.2
2019-02-23T11:53:16.891Z,-6.1
2019-02-23T11:54:16.842Z,-6.4
2019-02-23T11:55:16.858Z,-6.6
2019-02-23T11:56:16.847Z,-6.1
2019-02-23T11:57:17.087Z,-5.9
2019-02-23T11:58:16.911Z,-5.6
2019-02-23T11:59:16.897Z,-5.3
2019-02-23T12:00:16.933Z,-5.7
2019-02-23T12:01:16.894Z,-5.9
2019-02-23T12:02:16.857Z,-6
2019-02-23T12:03:16.925Z,-5.5
2019-02-23T12:04:17.059Z,-5.6
2019-02-23T12:05:17.088Z,-7.1
2019-02-23T12:06:17.162Z,-7.4
2019-02-23T12:07:17.216Z,-8.2
2019-02-23T12:08:17.280Z,-8.5
2019-02-23T12:09:17.280Z,-7.9
2019-02-23T12:10:17.324Z,-7.1
2019-02-23T12:11:17.351Z,-6.5
2019-02-23T12:12:17.431Z,-6.2
2019-02-23T12:13:17.413Z,-6
2019-02-23T12:14:17.482Z,-6.1
2019-02-23T12:15:17.557Z,-6
2019-02-23T12:16:17.562Z,-5.9
2019-02-23T12:17:17.592Z,-6.3
2019-02-23T12:18:17.671Z,-6.5
2019-02-23T12:19:17.746Z,-6.5
2019-02-23T12:20:17.776Z,-6.3
2019-02-23T12:21:17.831Z,-6.6
2019-02-23T12:22:17.871Z,-6.3
2019-02-23T12:23:17.890Z,-6.4
2019-02-23T12:24:17.895Z,-6.2
2019-02-23T12:25:17.977Z,-6.4
2019-02-23T12:26:18.005Z,-6.6
2019-02-23T12:27:18.037Z,-6.3
2019-02-23T12:28:18.115Z,-6.1
2019-02-23T12:29:18.119Z,-6.5
2019-02-23T12:30:18.187Z,-6.6
2019-02-23T12:31:18.179Z,-6.9
2019-02-23T12:32:18.205Z,-7
2019-02-23T12:33:18.298Z,-6.8
2019-02-23T12:34:18.316Z,-6.3
2019-02-23T12:35:18.311Z,-6.9
2019-02-23T12:36:18.374Z,-6.6
2019-02-23T12:37:18.394Z,-5.8
2019-02-23T12:38:18.438Z,-6.8
2019-02-23T12:39:18.474Z,-7
2019-02-23T12:40:18.484Z,-7
2019-02-23T12:41:18.511Z,-6.7
2019-02-23T12:42:18.578Z,-6.3
2019-02-23T12:43:18.611Z,-6.8
2019-02-23T12:44:18.659Z,-6.8
2019-02-23T12:45:18.702Z,-6.8
2019-02-23T12:46:18.758Z,-7
2019-02-23T12:47:18.812Z,-7.4
2019-02-23T12:48:18.939Z,-6.4
2019-02-23T12:49:18.814Z,-6.3
2019-02-23T12:50:18.893Z,-5.9
2019-02-23T12:51:18.892Z,-7.1
2019-02-23T12:52:18.876Z,-7.6
2019-02-23T12:53:18.928Z,-7.5
2019-02-23T12:54:18.924Z,-7.7
2019-02-23T12:55:18.988Z,-8.4
2019-02-23T12:56:19.049Z,-8.4
2019-02-23T12:57:19.091Z,-8
2019-02-23T12:58:19.066Z,-8.2
2019-02-23T12:59:19.103Z,-8
2019-02-23T13:00:19.160Z,-8.4
2019-02-23T13:01:19.177Z,-7.3
2019-02-23T13:02:19.219Z,-7.5
2019-02-23T13:03:19.287Z,-8.2
2019-02-23T13:04:19.759Z,-7.5
2019-02-23T13:05:19.313Z,-7
2019-02-23T13:06:35.247Z,-7.8
2019-02-23T13:07:19.348Z,-7.6
2019-02-23T13:08:19.393Z,-8
2019-02-23T13:09:19.409Z,-7.7
2019-02-23T13:10:19.478Z,-8.3
2019-02-23T13:11:19.474Z,-7.8
2019-02-23T13:12:19.500Z,-7.6
2019-02-23T13:13:19.509Z,-8.1
2019-02-23T13:14:19.534Z,-8.9
2019-02-23T13:15:19.555Z,-8.9
2019-02-23T13:16:19.576Z,-8.2
2019-02-23T13:17:19.601Z,-7
2019-02-23T13:18:19.651Z,-7.5
2019-02-23T13:19:19.607Z,-7.4
2019-02-23T13:20:19.670Z,-8.1
2019-02-23T13:21:19.657Z,-8.3
2019-02-23T13:22:19.696Z,-8.7
2019-02-23T13:23:19.736Z,-8.8
2019-02-23T13:24:27.661Z,-9.6
2019-02-23T13:25:19.719Z,-9.5